Time;durP1;ratioP1;P1;durP2;ratioP2;P2;SDS_P1;SDS_P2;PMS_P1;PMS_P2;Temp;Humidity;BMP_temperature;BMP_pressure;BME280_temperature;BME280_humidity;BME280_pressure;Samples;Min_cycle;Max_cycle;Signal;HPM_P1;HPM_P2
2021/01/29 00:00:17;;;;;;;16.10;10.32;;;10.20;94.80;;;;;;5041142;28;20481;-73
2021/01/29 00:02:43;;;;;;;16.95;11.20;;;10.20;94.80;;;;;;5035845;28;20435;-73
2021/01/29 00:05:10;;;;;;;15.57;10.65;;;10.20;94.80;;;;;;5036877;28;20744;-72
2021/01/29 00:07:35;;;;;;;15.43;9.75;;;10.30;94.80;;;;;;5035418;28;20495;-72
2021/01/29 00:10:02;;;;;;;18.90;9.60;;;10.20;94.80;;;;;;5033570;28;20539;-74
2021/01/29 00:12:28;;;;;;;14.48;9.25;;;10.30;94.90;;;;;;5033181;28;20182;-72
2021/01/29 00:14:53;;;;;;;13.52;8.65;;;10.30;94.90;;;;;;5036872;28;20120;-73
2021/01/29 00:17:20;;;;;;;13.80;8.13;;;10.30;94.90;;;;;;5032124;28;20041;-73
2021/01/29 00:19:45;;;;;;;14.48;8.90;;;10.40;94.90;;;;;;5033267;28;20401;-72
2021/01/29 00:22:11;;;;;;;15.10;8.55;;;10.30;94.90;;;;;;5035428;28;20119;-72
2021/01/29 00:24:37;;;;;;;15.75;8.18;;;10.30;94.90;;;;;;5035036;28;20082;-72
2021/01/29 00:27:04;;;;;;;12.55;7.50;;;10.40;94.80;;;;;;5034838;28;20033;-74
2021/01/29 00:29:31;;;;;;;12.25;7.25;;;10.40;94.90;;;;;;5030803;28;20271;-74
2021/01/29 00:31:56;;;;;;;14.02;6.68;;;10.30;94.80;;;;;;5053569;28;20545;-72
2021/01/29 00:34:22;;;;;;;9.43;6.43;;;10.30;94.90;;;;;;5035080;28;20037;-74
2021/01/29 00:36:48;;;;;;;10.02;5.93;;;10.40;94.80;;;;;;5029515;28;20037;-74
2021/01/29 00:39:14;;;;;;;11.13;6.35;;;10.40;94.80;;;;;;5034766;28;20076;-74
2021/01/29 00:41:40;;;;;;;11.20;5.88;;;10.40;94.80;;;;;;5031687;28;20053;-72
2021/01/29 00:44:06;;;;;;;12.65;6.25;;;10.40;94.70;;;;;;5033296;28;20052;-72
2021/01/29 00:46:32;;;;;;;13.65;6.40;;;10.30;94.70;;;;;;5037061;28;20051;-73
2021/01/29 00:48:57;;;;;;;9.73;5.60;;;10.30;94.60;;;;;;5035121;28;20078;-72
2021/01/29 00:51:23;;;;;;;10.85;5.82;;;10.30;94.70;;;;;;5034354;28;20327;-76
2021/01/29 00:53:49;;;;;;;8.48;5.18;;;10.30;94.60;;;;;;5034279;28;20036;-73
2021/01/29 00:56:14;;;;;;;8.35;4.90;;;10.40;94.60;;;;;;5031226;28;20056;-72
2021/01/29 00:58:40;;;;;;;9.95;4.75;;;10.40;94.60;;;;;;5033936;28;20360;-74
2021/01/29 01:01:06;;;;;;;10.70;4.53;;;10.30;94.60;;;;;;5032159;28;20041;-73
2021/01/29 01:03:32;;;;;;;7.53;4.07;;;10.30;94.60;;;;;;5034875;28;20033;-76
2021/01/29 01:05:58;;;;;;;8.50;4.97;;;10.40;94.60;;;;;;5031905;28;20051;-72
2021/01/29 01:08:24;;;;;;;7.88;4.38;;;10.40;94.60;;;;;;5039818;28;20098;-72
2021/01/29 01:10:50;;;;;;;9.65;5.15;;;10.40;94.60;;;;;;5037954;28;20037;-72
2021/01/29 01:13:16;;;;;;;10.13;4.63;;;10.40;94.60;;;;;;5035206;28;20044;-72
2021/01/29 01:15:41;;;;;;;8.80;4.60;;;10.40;94.60;;;;;;5042004;28;20037;-73
2021/01/29 01:18:08;;;;;;;9.45;4.95;;;10.40;94.70;;;;;;5037804;28;20408;-73
2021/01/29 01:20:34;;;;;;;8.00;4.40;;;10.40;94.70;;;;;;5038074;28;20056;-75
2021/01/29 01:23:00;;;;;;;8.13;5.00;;;10.40;94.70;;;;;;5037956;28;20042;-72
2021/01/29 01:25:26;;;;;;;8.95;5.07;;;10.40;94.70;;;;;;5039034;28;20052;-72
2021/01/29 01:27:52;;;;;;;8.43;5.22;;;10.40;94.70;;;;;;5038532;28;20045;-72
2021/01/29 01:30:31;;;;;;;9.02;5.20;;;10.40;94.80;;;;;;5037319;28;20071;-73
2021/01/29 01:32:57;;;;;;;9.10;5.45;;;10.40;94.70;;;;;;5038329;28;20040;-72
2021/01/29 01:35:23;;;;;;;7.45;4.47;;;10.40;94.80;;;;;;5040349;28;21353;-72
2021/01/29 01:37:50;;;;;;;7.68;4.70;;;10.50;94.80;;;;;;5039916;28;20060;-72
2021/01/29 01:40:28;;;;;;;8.27;5.20;;;10.40;94.80;;;;;;5038411;28;20305;-72
2021/01/29 01:42:53;;;;;;;7.97;4.80;;;10.50;94.80;;;;;;5040962;28;20049;-72
2021/01/29 01:45:28;;;;;;;9.23;5.25;;;10.50;94.80;;;;;;5038289;28;20068;-72
2021/01/29 01:48:08;;;;;;;7.75;4.75;;;10.50;94.70;;;;;;5039563;28;20037;-72
2021/01/29 01:50:41;;;;;;;7.75;4.80;;;10.50;94.70;;;;;;5039682;28;20037;-73
2021/01/29 01:53:18;;;;;;;7.78;4.85;;;10.50;94.70;;;;;;5036240;28;20653;-72
2021/01/29 01:55:44;;;;;;;8.35;4.32;;;10.50;94.70;;;;;;5036311;28;20041;-72
2021/01/29 01:58:11;;;;;;;8.75;4.35;;;10.50;94.70;;;;;;5037678;28;20553;-73
2021/01/29 02:00:36;;;;;;;7.88;4.70;;;10.50;94.80;;;;;;5041481;28;20041;-72
2021/01/29 02:03:06;;;;;;;6.72;4.18;;;10.50;94.80;;;;;;5038350;28;20413;-72
2021/01/29 02:05:37;;;;;;;7.72;3.90;;;10.50;94.80;;;;;;5038364;28;20573;-72
2021/01/29 02:08:06;;;;;;;7.05;4.15;;;10.50;94.80;;;;;;5033658;28;20563;-72
2021/01/29 02:10:32;;;;;;;7.20;4.07;;;10.50;94.80;;;;;;5037313;28;20120;-72
2021/01/29 02:12:59;;;;;;;6.95;3.65;;;10.50;94.80;;;;;;5037598;28;20120;-71
2021/01/29 02:15:32;;;;;;;6.97;3.28;;;10.50;94.80;;;;;;5033704;28;20583;-74
2021/01/29 02:18:22;;;;;;;5.35;3.00;;;10.50;94.80;;;;;;5038319;28;20049;-74
2021/01/29 02:21:20;;;;;;;6.93;3.00;;;10.50;94.80;;;;;;5035514;28;20048;-72
2021/01/29 02:23:52;;;;;;;4.65;2.58;;;10.50;94.80;;;;;;5036169;28;20119;-73
2021/01/29 02:26:27;;;;;;;4.03;2.17;;;10.60;94.70;;;;;;5036234;28;20049;-72
2021/01/29 02:29:05;;;;;;;;;;;10.60;94.60;;;;;;5040370;28;20114;-72
2021/01/29 02:31:47;;;;;;;6.13;3.60;;;10.60;94.60;;;;;;5035417;28;19927;-73
2021/01/29 02:34:34;;;;;;;8.52;4.50;;;10.60;94.60;;;;;;5037078;28;20029;-75
2021/01/29 02:37:15;;;;;;;7.10;4.57;;;10.50;94.60;;;;;;5051995;28;20126;-73
2021/01/29 02:40:02;;;;;;;7.03;4.65;;;10.50;94.60;;;;;;5035048;28;20415;-76
2021/01/29 02:42:47;;;;;;;6.72;3.88;;;10.50;94.60;;;;;;5037090;28;20046;-72
2021/01/29 02:45:27;;;;;;;10.30;7.32;;;10.50;94.50;;;;;;5034511;28;20040;-72
2021/01/29 02:48:03;;;;;;;12.45;8.20;;;10.40;94.50;;;;;;5054058;28;20153;-72
2021/01/29 02:50:53;;;;;;;10.65;7.70;;;10.40;94.50;;;;;;5035189;28;20487;-77
2021/01/29 02:53:44;;;;;;;8.82;6.78;;;10.40;94.50;;;;;;5040144;28;20047;-73
2021/01/29 02:56:15;;;;;;;9.70;7.32;;;10.30;94.20;;;;;;5031406;28;20032;-72
2021/01/29 02:59:05;;;;;;;10.73;7.50;;;10.30;93.90;;;;;;5034650;28;20053;-71
2021/01/29 03:01:34;;;;;;;9.60;7.30;;;10.30;93.70;;;;;;5029802;28;20090;-75
2021/01/29 03:04:34;;;;;;;9.30;6.75;;;10.30;93.60;;;;;;5039078;28;20212;-72
2021/01/29 03:07:16;;;;;;;8.80;5.30;;;10.30;93.50;;;;;;5005571;28;20119;-75
2021/01/29 03:09:48;;;;;;;7.20;4.13;;;10.30;93.60;;;;;;5037991;28;20038;-74
2021/01/29 03:12:43;;;;;;;6.63;3.72;;;10.20;93.70;;;;;;5035383;28;20029;-72
2021/01/29 03:15:37;;;;;;;5.32;3.13;;;10.20;93.80;;;;;;5032160;28;20040;-72
2021/01/29 03:18:20;;;;;;;4.57;2.30;;;10.20;93.70;;;;;;5032693;28;20132;-71
2021/01/29 03:21:14;;;;;;;5.93;2.55;;;10.20;93.60;;;;;;5030408;28;20053;-71
2021/01/29 03:23:49;;;;;;;9.18;2.45;;;10.20;93.60;;;;;;5035107;28;20396;-71
2021/01/29 03:26:21;;;;;;;7.60;2.00;;;10.20;93.60;;;;;;5036537;28;20159;-73
2021/01/29 03:28:51;;;;;;;7.47;2.53;;;10.20;93.30;;;;;;5034826;28;20476;-71
2021/01/29 03:31:20;;;;;;;8.10;1.90;;;10.20;93.20;;;;;;5034718;28;20041;-72
2021/01/29 03:33:49;;;;;;;11.75;2.88;;;10.20;93.00;;;;;;5034159;28;20036;-72
2021/01/29 03:36:18;;;;;;;9.15;2.03;;;10.20;92.90;;;;;;5032312;28;20205;-71
2021/01/29 03:38:44;;;;;;;11.60;3.50;;;10.20;92.60;;;;;;5033310;28;20547;-73
2021/01/29 03:41:29;;;;;;;17.15;3.20;;;10.10;92.60;;;;;;5036746;28;20468;-75
2021/01/29 03:43:55;;;;;;;13.32;3.65;;;10.10;92.40;;;;;;5044508;28;20108;-71
2021/01/29 03:46:37;;;;;;;9.50;2.95;;;10.10;92.40;;;;;;5035535;28;20754;-72
2021/01/29 03:49:44;;;;;;;12.25;2.60;;;10.10;92.20;;;;;;5034778;28;20052;-75
2021/01/29 03:52:15;;;;;;;13.07;3.22;;;10.10;92.00;;;;;;5033043;28;20063;-74
2021/01/29 03:55:02;;;;;;;11.10;2.50;;;10.10;91.80;;;;;;5033698;28;20029;-72
2021/01/29 03:57:34;;;;;;;11.75;3.38;;;10.10;91.70;;;;;;5033911;28;20146;-73
2021/01/29 04:00:08;;;;;;;11.23;3.00;;;10.10;91.80;;;;;;5034237;28;20449;-71
2021/01/29 04:03:01;;;;;;;12.18;2.25;;;10.00;91.70;;;;;;5036270;28;20511;-72
2021/01/29 04:05:32;;;;;;;8.15;1.90;;;10.00;91.60;;;;;;5023199;28;20104;-77
2021/01/29 04:08:07;;;;;;;11.20;2.83;;;9.90;91.90;;;;;;5034745;28;20043;-72
2021/01/29 04:10:34;;;;;;;12.27;2.75;;;9.90;92.00;;;;;;5033277;28;20575;-73
2021/01/29 04:13:22;;;;;;;11.98;2.53;;;9.90;91.90;;;;;;5047543;28;20393;-72
2021/01/29 04:15:50;;;;;;;10.45;2.63;;;9.90;91.90;;;;;;5035403;28;20036;-72
2021/01/29 04:18:47;;;;;;;11.48;3.03;;;9.90;91.80;;;;;;5034495;28;20120;-72
2021/01/29 04:21:37;;;;;;;14.05;3.42;;;9.90;92.00;;;;;;5035065;28;20551;-72
2021/01/29 04:24:09;;;;;;;18.77;3.33;;;9.90;92.00;;;;;;5033491;28;20025;-72
2021/01/29 04:26:53;;;;;;;14.73;3.45;;;9.80;91.90;;;;;;5037260;28;20602;-75
2021/01/29 04:29:24;;;;;;;14.18;3.58;;;9.80;92.10;;;;;;5032864;28;20083;-73
2021/01/29 04:31:55;;;;;;;12.70;2.97;;;9.90;92.00;;;;;;5034544;28;20486;-72
2021/01/29 04:34:27;;;;;;;13.18;3.08;;;9.90;91.80;;;;;;5034260;28;20056;-72
2021/01/29 04:36:58;;;;;;;14.43;3.30;;;9.90;91.80;;;;;;5039339;28;20025;-71
2021/01/29 04:39:29;;;;;;;15.52;3.25;;;10.00;91.40;;;;;;5037656;28;20045;-71
2021/01/29 04:42:00;;;;;;;20.63;4.50;;;10.10;91.30;;;;;;5041357;28;20448;-73
2021/01/29 04:44:44;;;;;;;17.73;3.97;;;10.10;91.40;;;;;;5040163;28;20045;-72
2021/01/29 04:47:12;;;;;;;16.20;3.63;;;10.10;91.40;;;;;;5038790;28;20499;-71
2021/01/29 04:50:08;;;;;;;18.33;4.32;;;10.10;91.30;;;;;;5040542;28;20500;-71
2021/01/29 04:53:00;;;;;;;18.83;3.88;;;10.00;91.30;;;;;;5049885;28;20119;-75
2021/01/29 04:55:35;;;;;;;17.52;4.72;;;10.10;91.30;;;;;;5041599;28;20041;-72
2021/01/29 04:58:13;;;;;;;22.80;4.82;;;10.10;90.90;;;;;;5036228;28;20578;-75
2021/01/29 05:00:58;;;;;;;27.27;5.43;;;10.10;90.80;;;;;;5043144;28;20495;-73
2021/01/29 05:03:28;;;;;;;26.08;6.18;;;10.10;90.70;;;;;;5055530;28;20451;-72
2021/01/29 05:06:16;;;;;;;23.50;5.75;;;10.10;90.50;;;;;;5035914;28;20080;-72
2021/01/29 05:09:01;;;;;;;22.33;5.07;;;10.20;89.80;;;;;;5040309;28;20033;-72
2021/01/29 05:12:00;;;;;;;20.55;5.15;;;10.20;89.70;;;;;;5038687;28;20728;-72
2021/01/29 05:14:45;;;;;;;23.00;6.10;;;10.20;89.00;;;;;;5039672;28;20041;-76
2021/01/29 05:17:44;;;;;;;21.67;4.45;;;10.20;89.20;;;;;;5039543;28;20051;-73
2021/01/29 05:20:36;;;;;;;26.80;5.20;;;10.20;89.40;;;;;;5038066;28;20048;-73
2021/01/29 05:23:14;;;;;;;27.67;5.32;;;10.10;89.20;;;;;;5036695;28;20499;-72
2021/01/29 05:26:13;;;;;;;22.42;4.63;;;10.10;89.10;;;;;;5035836;28;20037;-74
2021/01/29 05:29:02;;;;;;;27.55;5.20;;;10.10;88.90;;;;;;5040187;28;20037;-73
2021/01/29 05:31:49;;;;;;;28.88;7.13;;;10.10;89.10;;;;;;5036114;28;20607;-72
2021/01/29 05:34:40;;;;;;;31.70;6.55;;;10.10;89.10;;;;;;5037157;28;20502;-73
2021/01/29 05:37:30;;;;;;;32.83;7.30;;;10.00;89.10;;;;;;5038637;28;20043;-74
2021/01/29 05:40:23;;;;;;;24.85;5.72;;;9.90;89.20;;;;;;5037201;28;20055;-74
2021/01/29 05:43:10;;;;;;;31.05;6.43;;;9.90;89.00;;;;;;5036103;28;20085;-75
2021/01/29 05:45:46;;;;;;;35.40;6.63;;;9.90;88.80;;;;;;5052871;28;20451;-72
2021/01/29 05:48:43;;;;;;;32.70;7.20;;;9.80;88.80;;;;;;5038854;28;20044;-72
2021/01/29 05:51:27;;;;;;;28.10;6.05;;;9.80;88.30;;;;;;5021928;28;20091;-73
2021/01/29 05:54:30;;;;;;;30.80;6.78;;;9.80;87.80;;;;;;5053773;28;20497;-74
2021/01/29 05:57:11;;;;;;;30.27;7.15;;;9.70;87.40;;;;;;5037045;28;20377;-75
2021/01/29 06:00:10;;;;;;;26.73;6.13;;;9.70;87.30;;;;;;5039909;28;20041;-73
2021/01/29 06:02:56;;;;;;;26.33;5.38;;;9.70;86.80;;;;;;5035701;28;20033;-75
2021/01/29 06:05:58;;;;;;;25.60;5.90;;;9.60;86.80;;;;;;5038432;28;20032;-73
2021/01/29 06:08:41;;;;;;;30.20;6.22;;;9.60;86.60;;;;;;5035501;28;20152;-73
2021/01/29 06:11:25;;;;;;;28.08;6.55;;;9.60;86.60;;;;;;5035861;28;21067;-72
2021/01/29 06:14:06;;;;;;;30.77;7.50;;;9.60;86.90;;;;;;5036104;28;20044;-74
2021/01/29 06:17:00;;;;;;;27.10;6.00;;;9.60;86.80;;;;;;5054494;28;20079;-75
2021/01/29 06:19:46;;;;;;;30.00;6.75;;;9.50;87.40;;;;;;5035266;28;20053;-76
2021/01/29 06:22:39;;;;;;;32.80;5.97;;;9.50;87.40;;;;;;5051866;28;20071;-72
2021/01/29 06:25:39;;;;;;;30.13;5.80;;;9.50;87.00;;;;;;5035817;28;20041;-73
2021/01/29 06:28:31;;;;;;;34.50;5.45;;;9.50;87.30;;;;;;5020932;28;20045;-72
2021/01/29 06:31:14;;;;;;;28.35;5.13;;;9.50;87.30;;;;;;5038464;28;20472;-76
2021/01/29 06:33:58;;;;;;;30.02;6.60;;;9.50;87.70;;;;;;5036013;28;20032;-73
2021/01/29 06:37:02;;;;;;;35.47;6.32;;;9.40;88.20;;;;;;5036548;28;20045;-75
2021/01/29 06:39:42;;;;;;;39.72;6.78;;;9.30;88.40;;;;;;5035209;28;20044;-74
2021/01/29 06:42:20;;;;;;;42.97;7.38;;;9.30;88.60;;;;;;5035562;28;20151;-72
2021/01/29 06:45:06;;;;;;;29.23;5.80;;;9.30;88.80;;;;;;5050541;28;20180;-75
2021/01/29 06:47:51;;;;;;;37.33;6.65;;;9.30;88.80;;;;;;5035067;28;20115;-72
2021/01/29 06:50:32;;;;;;;44.93;7.07;;;9.30;88.70;;;;;;5036670;28;20448;-74
2021/01/29 06:53:26;;;;;;;44.58;7.45;;;9.20;88.70;;;;;;5034118;28;20030;-75
2021/01/29 06:55:55;;;;;;;42.75;7.25;;;9.20;88.70;;;;;;5033838;28;20033;-74
2021/01/29 06:58:32;;;;;;;33.58;7.18;;;9.20;88.60;;;;;;5036557;28;20464;-72
2021/01/29 07:01:19;;;;;;;40.00;7.13;;;9.10;88.60;;;;;;5036312;28;20060;-73
2021/01/29 07:04:11;;;;;;;40.08;8.05;;;9.10;88.70;;;;;;5046350;28;20116;-72
2021/01/29 07:07:01;;;;;;;42.67;7.28;;;9.10;88.70;;;;;;5036855;28;20130;-72
2021/01/29 07:09:51;;;;;;;31.30;5.72;;;9.10;88.20;;;;;;5034837;28;20036;-75
2021/01/29 07:12:37;;;;;;;36.42;6.90;;;9.10;88.30;;;;;;5035113;28;20138;-73
2021/01/29 07:15:06;;;;;;;37.90;6.65;;;9.10;88.20;;;;;;5034010;28;20530;-73
2021/01/29 07:18:10;;;;;;;38.92;6.72;;;9.00;88.30;;;;;;5037378;28;21222;-74
2021/01/29 07:20:53;;;;;;;43.15;7.22;;;9.00;88.30;;;;;;5042112;28;20037;-76
2021/01/29 07:23:50;;;;;;;36.97;6.82;;;9.10;88.30;;;;;;5035247;28;20480;-76
2021/01/29 07:26:53;;;;;;;40.08;7.35;;;9.00;88.50;;;;;;5036510;28;20035;-73
2021/01/29 07:29:29;;;;;;;36.65;7.13;;;9.10;88.30;;;;;;5034479;28;20099;-76
2021/01/29 07:32:00;;;;;;;35.63;7.13;;;9.10;88.30;;;;;;5037615;28;20517;-73
2021/01/29 07:34:45;;;;;;;39.80;7.65;;;9.10;88.20;;;;;;5048771;28;20146;-73
2021/01/29 07:37:29;;;;;;;33.95;6.93;;;9.10;88.40;;;;;;5039162;28;20469;-72
2021/01/29 07:40:24;;;;;;;41.75;7.72;;;9.10;88.50;;;;;;5046594;28;20055;-74
2021/01/29 07:43:25;;;;;;;32.63;7.57;;;9.20;88.50;;;;;;5031105;28;20032;-72
2021/01/29 07:46:16;;;;;;;38.78;8.15;;;9.30;88.40;;;;;;5035559;28;20034;-73
2021/01/29 07:49:01;;;;;;;41.47;7.55;;;9.30;88.50;;;;;;5037542;28;20041;-73
2021/01/29 07:51:56;;;;;;;34.22;7.53;;;9.40;88.30;;;;;;5031971;28;20037;-72
2021/01/29 07:54:36;;;;;;;42.47;8.13;;;9.30;88.30;;;;;;5033696;28;20036;-73
2021/01/29 07:57:37;;;;;;;36.22;8.00;;;9.40;88.40;;;;;;5036009;28;20132;-73
2021/01/29 08:00:24;;;;;;;45.58;7.68;;;9.40;88.30;;;;;;5014688;28;20065;-77
2021/01/29 08:03:27;;;;;;;39.63;7.50;;;9.50;88.30;;;;;;5033341;28;20045;-73
2021/01/29 08:06:03;;;;;;;44.80;7.82;;;9.60;88.30;;;;;;5039573;28;20528;-73
2021/01/29 08:08:36;;;;;;;40.20;8.02;;;9.60;88.20;;;;;;5034392;28;20052;-72
2021/01/29 08:11:04;;;;;;;39.38;7.90;;;9.60;88.10;;;;;;5037387;28;20503;-76
2021/01/29 08:13:38;;;;;;;49.28;8.02;;;9.60;88.20;;;;;;5032768;28;20140;-72
2021/01/29 08:16:18;;;;;;;37.85;7.43;;;9.70;88.00;;;;;;5044516;28;20037;-73
2021/01/29 08:19:14;;;;;;;38.25;6.72;;;9.70;87.90;;;;;;5039234;28;20144;-76
2021/01/29 08:22:09;;;;;;;45.78;9.40;;;9.70;87.90;;;;;;5041978;28;20115;-75
2021/01/29 08:25:17;;;;;;;41.20;9.25;;;9.60;88.40;;;;;;5032816;28;20041;-76
2021/01/29 08:28:13;;;;;;;41.25;7.85;;;9.60;88.50;;;;;;5038844;28;20040;-75
2021/01/29 08:31:08;;;;;;;37.55;7.18;;;9.70;88.50;;;;;;5037739;28;20500;-74
2021/01/29 08:33:58;;;;;;;34.15;7.13;;;9.80;88.20;;;;;;5039920;28;20037;-72
2021/01/29 08:37:12;;;;;;;40.78;7.82;;;9.90;87.60;;;;;;5039044;28;20569;-73
2021/01/29 08:40:14;;;;;;;39.83;7.63;;;9.90;87.50;;;;;;5019429;28;20495;-73
2021/01/29 08:43:11;;;;;;;37.50;7.95;;;9.90;87.70;;;;;;5034202;28;20045;-72
2021/01/29 08:46:11;;;;;;;37.88;6.82;;;9.90;87.70;;;;;;5042066;28;20041;-75
2021/01/29 08:48:54;;;;;;;39.33;8.55;;;9.90;87.60;;;;;;5037125;28;21295;-74
2021/01/29 08:51:30;;;;;;;34.95;7.40;;;10.00;87.60;;;;;;5039160;28;20090;-73
2021/01/29 08:54:18;;;;;;;33.67;6.80;;;9.90;87.60;;;;;;5018946;28;20083;-77
2021/01/29 08:57:12;;;;;;;35.15;6.68;;;10.10;87.20;;;;;;5024761;28;20033;-76
2021/01/29 08:59:40;;;;;;;32.70;6.18;;;10.10;86.50;;;;;;5029717;28;20056;-75
2021/01/29 09:02:17;;;;;;;36.00;6.55;;;10.10;86.20;;;;;;5028738;28;20033;-76
2021/01/29 09:04:49;;;;;;;32.78;6.60;;;10.10;86.00;;;;;;5027137;28;20399;-78
2021/01/29 09:07:19;;;;;;;28.70;7.00;;;10.20;85.70;;;;;;5029631;28;20051;-75
2021/01/29 09:09:46;;;;;;;32.85;7.00;;;10.10;86.20;;;;;;5029940;28;20068;-73
2021/01/29 09:12:26;;;;;;;35.42;7.32;;;10.10;86.50;;;;;;5025573;28;20087;-74
2021/01/29 09:15:01;;;;;;;38.30;7.38;;;10.20;86.30;;;;;;5025214;28;20044;-78
2021/01/29 09:17:34;;;;;;;;;;;10.20;86.20;;;;;;5025588;28;20044;-74
2021/01/29 09:20:04;;;;;;;29.05;6.20;;;10.30;86.10;;;;;;5027574;28;19967;-72
2021/01/29 09:22:33;;;;;;;33.55;7.57;;;10.30;86.30;;;;;;5028097;28;20047;-74
2021/01/29 09:25:33;;;;;;;30.98;8.20;;;10.30;86.40;;;;;;5027855;28;20066;-75
2021/01/29 09:28:09;;;;;;;33.63;6.80;;;10.30;86.40;;;;;;4995132;28;20484;-73
2021/01/29 09:30:35;;;;;;;38.22;6.88;;;10.30;86.50;;;;;;5023422;28;20029;-74
2021/01/29 09:33:29;;;;;;;34.38;7.00;;;10.30;86.80;;;;;;5041674;28;20508;-75
2021/01/29 09:36:04;;;;;;;37.00;7.72;;;10.30;87.10;;;;;;5027008;28;20552;-75
2021/01/29 09:38:35;;;;;;;31.75;6.97;;;10.30;87.20;;;;;;5025835;28;20134;-78
2021/01/29 09:41:14;;;;;;;36.72;6.80;;;10.20;87.20;;;;;;5027277;28;20094;-74
2021/01/29 09:44:07;;;;;;;28.88;6.32;;;10.10;87.10;;;;;;5029164;28;20128;-73
2021/01/29 09:46:39;;;;;;;28.95;6.22;;;10.10;87.00;;;;;;5030514;28;20033;-76
2021/01/29 09:49:19;;;;;;;30.88;6.28;;;10.20;86.80;;;;;;5027604;28;20136;-76
2021/01/29 09:52:02;;;;;;;34.97;6.82;;;10.40;86.60;;;;;;5027892;28;20033;-74
2021/01/29 09:54:33;;;;;;;38.30;7.45;;;10.60;86.10;;;;;;5027666;28;20036;-73
2021/01/29 09:57:05;;;;;;;38.08;6.75;;;10.60;85.90;;;;;;5030565;28;20045;-72
2021/01/29 09:59:55;;;;;;;39.08;7.15;;;10.70;84.80;;;;;;5028392;28;20076;-74
2021/01/29 10:02:53;;;;;;;30.98;6.60;;;10.80;84.80;;;;;;5031898;28;20052;-75
2021/01/29 10:05:39;;;;;;;33.58;6.38;;;10.80;84.30;;;;;;5006301;28;20059;-76
2021/01/29 10:08:11;;;;;;;29.98;6.50;;;10.70;84.30;;;;;;5032170;28;20488;-74
2021/01/29 10:11:10;;;;;;;35.20;5.82;;;10.70;84.40;;;;;;5034662;28;20049;-72
2021/01/29 10:14:12;;;;;;;28.67;5.97;;;10.70;83.80;;;;;;5030866;28;20098;-72
2021/01/29 10:16:58;;;;;;;33.05;6.30;;;10.70;83.90;;;;;;5030390;28;20049;-76
2021/01/29 10:19:42;;;;;;;36.65;7.45;;;10.70;83.60;;;;;;5018011;28;20037;-74
2021/01/29 10:22:26;;;;;;;27.63;6.05;;;10.80;83.60;;;;;;5035115;28;20061;-72
2021/01/29 10:25:10;;;;;;;32.50;7.03;;;11.00;82.90;;;;;;5033120;28;20070;-72
2021/01/29 10:27:40;;;;;;;36.22;7.75;;;11.10;82.60;;;;;;5035269;28;20045;-72
2021/01/29 10:30:16;;;;;;;35.03;7.40;;;11.10;82.70;;;;;;5033878;28;20046;-73
2021/01/29 10:32:56;;;;;;;28.55;5.72;;;11.10;82.50;;;;;;5037106;28;20045;-73
2021/01/29 10:35:56;;;;;;;33.50;6.03;;;11.10;81.80;;;;;;5034242;28;20037;-72
2021/01/29 10:38:52;;;;;;;30.77;6.28;;;11.00;82.50;;;;;;5035138;28;20082;-72
2021/01/29 10:41:30;;;;;;;33.20;6.20;;;11.10;82.00;;;;;;5028621;28;20041;-72
2021/01/29 10:44:17;;;;;;;34.80;6.43;;;11.00;82.40;;;;;;5043535;28;20131;-72
2021/01/29 10:47:19;;;;;;;29.13;6.18;;;10.90;82.50;;;;;;5026458;28;20048;-76
2021/01/29 10:49:57;;;;;;;27.08;5.85;;;10.80;82.90;;;;;;5029894;28;20112;-75
2021/01/29 10:52:44;;;;;;;35.13;6.10;;;10.90;82.80;;;;;;5025459;28;20037;-72
2021/01/29 10:55:39;;;;;;;34.35;7.20;;;10.90;83.00;;;;;;5025628;28;20037;-76
2021/01/29 10:58:34;;;;;;;34.67;7.72;;;10.90;83.60;;;;;;5024212;28;20700;-73
2021/01/29 11:01:27;;;;;;;32.58;6.63;;;10.90;84.10;;;;;;5023328;28;20057;-75
2021/01/29 11:04:18;;;;;;;34.13;6.07;;;10.80;84.80;;;;;;5027507;28;20577;-72
2021/01/29 11:07:02;;;;;;;31.05;6.60;;;10.60;84.80;;;;;;5026774;28;20052;-74
2021/01/29 11:09:37;;;;;;;34.05;5.85;;;10.60;86.30;;;;;;5024216;28;20041;-76
2021/01/29 11:12:22;;;;;;;34.65;7.40;;;11.00;86.90;;;;;;5024901;28;20033;-75
2021/01/29 11:15:01;;;;;;;29.23;5.85;;;11.30;85.70;;;;;;5027291;28;20029;-72
2021/01/29 11:17:38;;;;;;;26.92;5.80;;;11.60;84.80;;;;;;5031784;28;20040;-72
2021/01/29 11:20:15;;;;;;;26.73;5.57;;;11.60;83.30;;;;;;5033803;28;20033;-72
2021/01/29 11:22:55;;;;;;;23.08;5.70;;;11.60;81.50;;;;;;5036109;28;20480;-72
2021/01/29 11:25:30;;;;;;;33.15;6.80;;;11.40;82.40;;;;;;5032392;28;20538;-72
2021/01/29 11:28:28;;;;;;;37.22;6.90;;;11.30;82.50;;;;;;5035459;28;20437;-75
2021/01/29 11:31:03;;;;;;;31.77;5.88;;;11.20;82.60;;;;;;5031479;28;20542;-72
2021/01/29 11:33:31;;;;;;;;;;;11.40;82.00;;;;;;5033512;28;20029;-72
2021/01/29 11:36:04;;;;;;;27.67;7.45;;;11.60;81.80;;;;;;5038228;28;20443;-72
2021/01/29 11:38:35;;;;;;;27.60;6.25;;;11.60;81.30;;;;;;5032362;28;20183;-72
2021/01/29 11:41:08;;;;;;;27.35;5.45;;;11.70;81.30;;;;;;5034974;28;20064;-73
2021/01/29 11:43:42;;;;;;;29.63;5.88;;;11.70;81.40;;;;;;5035586;28;20033;-73
2021/01/29 11:46:28;;;;;;;29.90;6.32;;;11.70;81.10;;;;;;5032109;28;20152;-75
2021/01/29 11:48:59;;;;;;;28.42;5.88;;;11.70;81.10;;;;;;5033907;28;20397;-72
2021/01/29 11:51:40;;;;;;;33.40;6.78;;;11.70;81.40;;;;;;5033739;28;20154;-73
2021/01/29 11:54:12;;;;;;;25.73;5.82;;;11.90;81.00;;;;;;5035126;28;20041;-72
2021/01/29 11:56:58;;;;;;;27.27;6.05;;;11.90;80.40;;;;;;5034791;28;20029;-72
2021/01/29 12:00:04;;;;;;;25.70;5.93;;;11.90;79.80;;;;;;5036182;28;20048;-71
2021/01/29 12:02:37;;;;;;;25.50;4.82;;;11.90;78.70;;;;;;4991226;28;20652;-73
2021/01/29 12:05:34;;;;;;;29.60;5.25;;;11.80;78.80;;;;;;5034876;28;20040;-72
2021/01/29 12:08:05;;;;;;;26.65;5.22;;;11.60;79.30;;;;;;5032631;28;20092;-77
2021/01/29 12:10:41;;;;;;;26.33;6.05;;;11.60;79.40;;;;;;5035031;28;20433;-75
2021/01/29 12:13:31;;;;;;;18.33;4.32;;;11.70;78.50;;;;;;5031967;28;20057;-73
2021/01/29 12:16:02;;;;;;;28.50;5.13;;;11.60;78.50;;;;;;5031669;28;20778;-73
2021/01/29 12:18:32;;;;;;;25.15;4.45;;;11.60;78.30;;;;;;5032505;28;20041;-72
2021/01/29 12:21:12;;;;;;;29.40;5.35;;;11.60;78.40;;;;;;5034244;28;20552;-72
2021/01/29 12:23:50;;;;;;;26.50;4.90;;;11.50;78.20;;;;;;5037945;28;20029;-72
2021/01/29 12:26:33;;;;;;;24.92;5.53;;;11.40;79.30;;;;;;5037100;28;20059;-73
2021/01/29 12:29:29;;;;;;;23.27;5.10;;;11.30;79.60;;;;;;5032802;28;20041;-73
2021/01/29 12:32:13;;;;;;;26.17;4.88;;;11.20;80.00;;;;;;4996178;28;20037;-74
2021/01/29 12:34:44;;;;;;;21.00;5.22;;;11.10;80.20;;;;;;5036148;28;20033;-74
2021/01/29 12:37:31;;;;;;;27.33;4.90;;;11.10;80.50;;;;;;5033612;28;20120;-76
2021/01/29 12:40:28;;;;;;;25.50;5.13;;;11.10;80.50;;;;;;5033133;28;20089;-73
2021/01/29 12:43:25;;;;;;;20.10;4.22;;;11.10;80.80;;;;;;5031640;28;20045;-74
2021/01/29 12:46:15;;;;;;;27.60;5.10;;;10.90;80.80;;;;;;5034012;28;20040;-73
2021/01/29 12:48:56;;;;;;;18.85;4.07;;;11.00;81.10;;;;;;5036748;28;20127;-72
2021/01/29 12:51:30;;;;;;;30.98;5.13;;;11.10;80.90;;;;;;5033332;28;20045;-72
2021/01/29 12:54:05;;;;;;;27.65;6.28;;;11.10;81.00;;;;;;5034945;28;20041;-73
2021/01/29 12:56:36;;;;;;;21.42;4.93;;;11.10;81.00;;;;;;5031187;28;20111;-72
2021/01/29 12:59:04;;;;;;;24.15;5.03;;;11.20;80.90;;;;;;5033298;28;20131;-72
2021/01/29 13:01:33;;;;;;;23.27;5.22;;;11.10;81.30;;;;;;5040117;28;20040;-73
2021/01/29 13:04:24;;;;;;;20.75;4.80;;;11.10;81.80;;;;;;5039164;28;20040;-72
2021/01/29 13:07:05;;;;;;;20.00;4.53;;;10.80;83.00;;;;;;5041420;28;20045;-72
2021/01/29 13:10:09;;;;;;;16.23;3.42;;;10.60;84.60;;;;;;5052392;28;20088;-73
2021/01/29 13:12:43;;;;;;;26.65;5.00;;;10.60;86.10;;;;;;5025536;28;20028;-76
2021/01/29 13:15:44;;;;;;;18.65;4.13;;;10.40;86.60;;;;;;5031696;28;20110;-74
2021/01/29 13:18:32;;;;;;;21.17;4.32;;;10.40;87.00;;;;;;5005079;28;20048;-71
2021/01/29 13:21:10;;;;;;;25.38;5.25;;;10.30;87.40;;;;;;5022960;28;20139;-72
2021/01/29 13:23:39;;;;;;;20.65;3.90;;;10.20;87.80;;;;;;5031815;28;20116;-72
2021/01/29 13:26:16;;;;;;;19.17;4.25;;;10.20;88.30;;;;;;5028630;28;20049;-76
2021/01/29 13:29:02;;;;;;;21.80;3.92;;;10.20;88.30;;;;;;5028811;28;20040;-76
2021/01/29 13:31:36;;;;;;;29.40;5.10;;;10.20;88.50;;;;;;5026018;28;20504;-72
2021/01/29 13:34:21;;;;;;;21.73;5.65;;;10.10;88.80;;;;;;5029167;28;20037;-72
2021/01/29 13:37:13;;;;;;;27.92;6.03;;;10.10;88.90;;;;;;5028103;28;20068;-72
2021/01/29 13:39:41;;;;;;;23.50;5.30;;;10.10;89.10;;;;;;5031728;28;20102;-76
2021/01/29 13:42:25;;;;;;;21.13;5.25;;;10.20;89.00;;;;;;5028090;28;20394;-75
2021/01/29 13:44:56;;;;;;;22.27;5.60;;;10.20;89.00;;;;;;5025482;28;20476;-76
2021/01/29 13:47:29;;;;;;;26.10;6.13;;;10.10;89.20;;;;;;5027244;28;21563;-75
2021/01/29 13:49:57;;;;;;;28.50;5.63;;;10.10;89.60;;;;;;5028695;28;20390;-76